Time;durP1;ratioP1;P1;durP2;ratioP2;P2;SDS_P1;SDS_P2;PMS_P1;PMS_P2;Temp;Humidity;BMP_temperature;BMP_pressure;BME280_temperature;BME280_humidity;BME280_pressure;Samples;Min_cycle;Max_cycle;Signal;HPM_P1;HPM_P2
2022/07/31 00:00:55;;;;;;;23.30;20.83;;;;;;;16.98;100.00;101621.91;4993753;28;20248;-50
2022/07/31 00:03:20;;;;;;;23.67;20.23;;;;;;;16.97;100.00;101611.19;4993277;28;20217;-51
2022/07/31 00:05:46;;;;;;;20.70;18.63;;;;;;;17.05;100.00;101614.34;4993471;28;20672;-50
2022/07/31 00:08:11;;;;;;;27.30;20.17;;;;;;;17.05;100.00;101611.63;4993584;28;20193;-51
2022/07/31 00:10:37;;;;;;;23.80;19.85;;;;;;;17.05;100.00;101617.06;4993518;28;20189;-50
2022/07/31 00:13:03;;;;;;;22.52;19.77;;;;;;;16.86;100.00;101626.16;4993199;28;20221;-50
2022/07/31 00:15:28;;;;;;;23.67;20.38;;;;;;;17.12;100.00;101615.78;4991149;28;20180;-49
2022/07/31 00:17:54;;;;;;;26.25;19.73;;;;;;;17.11;100.00;101618.56;4993462;28;20173;-48
2022/07/31 00:20:19;;;;;;;25.70;21.17;;;;;;;17.06;100.00;101621.53;4993402;28;20162;-49
2022/07/31 00:22:46;;;;;;;22.80;20.42;;;;;;;17.05;100.00;101625.19;4991946;28;20645;-52
2022/07/31 00:25:14;;;;;;;20.88;18.77;;;;;;;17.05;100.00;101627.88;4993029;28;20166;-49
2022/07/31 00:27:40;;;;;;;20.33;18.17;;;;;;;17.15;100.00;101622.88;4993048;28;20185;-50
2022/07/31 00:30:07;;;;;;;22.70;19.73;;;;;;;17.15;100.00;101614.75;4992702;28;20182;-53
2022/07/31 00:32:33;;;;;;;25.15;22.30;;;;;;;17.11;100.00;101613.16;4991829;28;20197;-51
2022/07/31 00:34:58;;;;;;;24.00;20.52;;;;;;;16.97;100.00;101608.47;4992850;28;20700;-50
2022/07/31 00:37:24;;;;;;;20.23;18.13;;;;;;;17.10;100.00;101615.00;4993276;28;20589;-49
2022/07/31 00:39:49;;;;;;;23.38;20.60;;;;;;;17.11;100.00;101607.75;4993036;28;20602;-49
2022/07/31 00:42:23;;;;;;;24.45;20.45;;;;;;;17.11;100.00;101605.91;4993267;28;20569;-51
2022/07/31 00:44:50;;;;;;;20.27;18.23;;;;;;;17.06;100.00;101606.16;4975348;28;20187;-49
2022/07/31 00:47:17;;;;;;;24.52;20.08;;;;;;;17.03;100.00;101597.31;4993149;28;20228;-50
2022/07/31 00:49:44;;;;;;;24.50;21.30;;;;;;;17.02;100.00;101599.16;4991877;28;20181;-51
2022/07/31 00:52:10;;;;;;;26.00;21.65;;;;;;;16.95;100.00;101591.44;4992486;28;20209;-49
2022/07/31 00:54:35;;;;;;;23.75;21.40;;;;;;;16.86;100.00;101600.91;4992263;28;20668;-50
2022/07/31 00:57:01;;;;;;;25.33;22.70;;;;;;;16.89;100.00;101593.50;4991644;28;20228;-51
2022/07/31 00:59:28;;;;;;;26.55;21.67;;;;;;;16.85;100.00;101602.72;4992461;28;20173;-51
2022/07/31 01:01:55;;;;;;;20.40;18.20;;;;;;;16.98;100.00;101599.38;4992366;28;20197;-49
2022/07/31 01:04:20;;;;;;;29.20;23.77;;;;;;;16.69;100.00;101601.75;4990883;28;20522;-51
2022/07/31 01:06:46;;;;;;;26.88;24.13;;;;;;;16.77;100.00;101607.66;4992202;28;20208;-48
2022/07/31 01:09:13;;;;;;;28.40;24.73;;;;;;;16.77;100.00;101607.66;4992847;28;20178;-50
2022/07/31 01:11:47;;;;;;;29.67;25.85;;;;;;;16.72;100.00;101614.25;4992506;28;20205;-50
2022/07/31 01:14:14;;;;;;;27.45;24.73;;;;;;;16.66;100.00;101615.44;4991064;28;20591;-49
2022/07/31 01:16:45;;;;;;;29.42;25.38;;;;;;;16.62;100.00;101619.28;4991029;28;20188;-51
2022/07/31 01:19:34;;;;;;;28.98;25.98;;;;;;;16.65;100.00;101619.97;4991322;28;20166;-50
2022/07/31 01:22:27;;;;;;;31.83;27.10;;;;;;;16.62;100.00;101619.28;4987488;28;20292;-51
2022/07/31 01:24:53;;;;;;;33.72;29.58;;;;;;;16.56;100.00;101628.56;4990491;28;20212;-51
2022/07/31 01:27:46;;;;;;;33.40;29.25;;;;;;;16.56;100.00;101633.97;4992467;28;20288;-50
2022/07/31 01:30:12;;;;;;;33.47;29.73;;;;;;;16.51;100.00;101627.03;4990631;28;20220;-49
2022/07/31 01:32:42;;;;;;;32.72;28.88;;;;;;;16.55;100.00;101628.63;4991096;28;20675;-49
2022/07/31 01:35:15;;;;;;;30.88;27.70;;;;;;;16.57;100.00;101627.59;4990440;28;20192;-49
2022/07/31 01:37:47;;;;;;;35.53;29.77;;;;;;;16.51;100.00;101633.34;4990530;28;20191;-52
2022/07/31 01:40:19;;;;;;;35.83;31.10;;;;;;;16.44;100.00;101635.47;4989881;28;20173;-51
2022/07/31 01:42:51;;;;;;;34.65;30.90;;;;;;;16.45;100.00;101647.16;4992075;28;20189;-51
2022/07/31 01:45:19;;;;;;;36.53;29.75;;;;;;;16.52;100.00;101656.72;4990262;28;20203;-50
2022/07/31 01:47:47;;;;;;;36.80;32.35;;;;;;;16.42;100.00;101653.59;4989808;28;20620;-52
2022/07/31 01:50:14;;;;;;;39.20;32.83;;;;;;;16.44;100.00;101653.50;4990590;28;20176;-50
2022/07/31 01:52:42;;;;;;;33.20;29.20;;;;;;;16.53;100.00;101649.47;4984882;28;20260;-51
2022/07/31 01:55:09;;;;;;;32.67;29.05;;;;;;;16.54;100.00;101649.41;4976844;28;20193;-51
2022/07/31 01:57:37;;;;;;;37.92;31.15;;;;;;;16.49;100.00;101654.19;4986468;28;20177;-52
2022/07/31 02:00:07;;;;;;;34.80;29.17;;;;;;;16.55;100.00;101648.47;4990069;28;20182;-53
2022/07/31 02:02:41;;;;;;;32.08;28.60;;;;;;;16.58;100.00;101642.88;4990421;28;20166;-51
2022/07/31 02:05:10;;;;;;;30.63;27.27;;;;;;;16.59;100.00;101644.63;4990949;28;20245;-51
2022/07/31 02:07:39;;;;;;;34.95;30.05;;;;;;;16.45;100.00;101650.75;4978733;28;20188;-50
2022/07/31 02:10:08;;;;;;;25.17;22.55;;;;;;;16.57;100.00;101657.34;4970547;28;20654;-51
2022/07/31 02:12:36;;;;;;;28.23;25.25;;;;;;;16.52;100.00;101661.25;4966477;28;20206;-52
2022/07/31 02:15:07;;;;;;;31.27;27.90;;;;;;;16.43;100.00;101674.28;4954228;28;20186;-52
2022/07/31 02:17:35;;;;;;;27.48;24.65;;;;;;;16.56;100.00;101673.69;4970400;28;20193;-49
2022/07/31 02:20:22;;;;;;;26.10;23.33;;;;;;;16.58;100.00;101677.19;4971746;28;20201;-50
2022/07/31 02:22:49;;;;;;;28.90;25.83;;;;;;;16.57;100.00;101689.81;4970244;28;20162;-49
2022/07/31 02:25:15;;;;;;;27.63;24.60;;;;;;;16.53;100.00;101699.06;4970484;28;20193;-48
2022/07/31 02:27:42;;;;;;;30.77;26.52;;;;;;;16.44;100.00;101707.59;4971707;28;20228;-49
2022/07/31 02:30:12;;;;;;;30.38;27.05;;;;;;;16.41;100.00;101700.53;4970120;28;20544;-49
2022/07/31 02:32:39;;;;;;;30.27;26.40;;;;;;;16.37;100.00;101700.75;4970225;28;20280;-47
2022/07/31 02:35:07;;;;;;;28.52;24.73;;;;;;;16.40;100.00;101698.78;4971282;28;20692;-49
2022/07/31 02:37:35;;;;;;;31.40;26.88;;;;;;;16.30;100.00;101693.91;4970842;28;20178;-49
2022/07/31 02:40:01;;;;;;;30.55;26.60;;;;;;;16.28;100.00;101716.47;4970885;28;20216;-46
2022/07/31 02:42:28;;;;;;;29.92;25.60;;;;;;;16.25;100.00;101713.91;4970489;28;20209;-46
2022/07/31 02:44:55;;;;;;;31.13;27.88;;;;;;;16.27;100.00;101712.03;4971117;28;20178;-46
2022/07/31 02:47:22;;;;;;;34.15;28.15;;;;;;;16.26;100.00;101715.66;4972101;28;20178;-43
2022/07/31 02:49:49;;;;;;;28.83;25.00;;;;;;;16.33;100.00;101732.47;4954588;28;20192;-46
2022/07/31 02:52:15;;;;;;;33.08;27.33;;;;;;;16.27;100.00;101728.25;4970434;28;20237;-45
2022/07/31 02:54:43;;;;;;;31.10;26.60;;;;;;;16.22;100.00;101734.81;4954582;28;20604;-45
2022/07/31 02:57:09;;;;;;;30.55;26.77;;;;;;;16.11;100.00;101745.25;4970729;28;20190;-44
2022/07/31 02:59:38;;;;;;;30.40;26.05;;;;;;;16.19;100.00;101754.75;4970670;28;20302;-46
2022/07/31 03:02:05;;;;;;;30.30;25.65;;;;;;;16.25;100.00;101750.91;4970283;28;20229;-46
2022/07/31 03:04:36;;;;;;;26.15;23.38;;;;;;;16.38;100.00;101756.63;4970184;28;20262;-46
2022/07/31 03:07:02;;;;;;;30.98;26.98;;;;;;;16.21;100.00;101797.97;4970471;28;20186;-42
2022/07/31 03:09:29;;;;;;;27.50;24.42;;;;;;;16.31;100.00;101815.53;4970314;28;20179;-45
2022/07/31 03:12:14;;;;;;;27.90;24.23;;;;;;;16.21;100.00;101808.78;4977745;28;20220;-45
2022/07/31 03:14:40;;;;;;;28.40;23.30;;;;;;;16.28;100.00;101815.66;4982061;28;20178;-46
2022/07/31 03:17:07;;;;;;;31.08;25.40;;;;;;;16.36;100.00;101837.81;4969440;28;20186;-45
2022/07/31 03:19:33;;;;;;;30.75;23.65;;;;;;;16.39;100.00;101817.84;4969555;28;20178;-44
2022/07/31 03:21:59;;;;;;;25.98;23.08;;;;;;;16.40;100.00;101842.13;4969437;28;20557;-43
2022/07/31 03:24:25;;;;;;;25.23;22.65;;;;;;;16.42;100.00;101842.03;4969075;28;20174;-43
2022/07/31 03:26:51;;;;;;;25.90;21.65;;;;;;;16.41;100.00;101843.00;4954024;28;20605;-42
2022/07/31 03:29:17;;;;;;;25.73;23.08;;;;;;;16.35;100.00;101844.16;4970480;28;20178;-41
2022/07/31 03:31:43;;;;;;;25.42;22.85;;;;;;;16.38;100.00;101825.09;4974343;28;20214;-44
2022/07/31 03:34:10;;;;;;;22.60;19.65;;;;;;;16.43;100.00;101847.41;4972443;28;20709;-45
2022/07/31 03:36:36;;;;;;;22.80;20.40;;;;;;;16.48;100.00;101774.13;4973115;28;20190;-45
2022/07/31 03:39:02;;;;;;;25.45;22.63;;;;;;;16.34;100.00;101861.34;4972831;28;20237;-43
2022/07/31 03:41:34;;;;;;;24.50;21.90;;;;;;;16.45;100.00;101831.97;4974035;28;20186;-44
2022/07/31 03:44:01;;;;;;;24.45;21.63;;;;;;;16.24;100.00;101831.13;4972613;28;20459;-44
2022/07/31 03:46:27;;;;;;;25.73;21.73;;;;;;;16.36;100.00;101824.28;4972392;28;20269;-43
2022/07/31 03:48:53;;;;;;;23.45;21.08;;;;;;;16.32;100.00;101819.09;4972553;28;20257;-43
2022/07/31 03:51:20;;;;;;;24.77;20.90;;;;;;;16.36;100.00;101839.66;4972504;28;20208;-44
2022/07/31 03:53:47;;;;;;;20.02;17.98;;;;;;;16.40;100.00;101838.56;4973452;28;20174;-44
2022/07/31 03:56:33;;;;;;;21.23;18.58;;;;;;;16.44;100.00;101878.91;4988873;28;20189;-42
2022/07/31 03:58:58;;;;;;;21.17;18.88;;;;;;;16.46;100.00;101838.25;4983653;28;20606;-43
2022/07/31 04:01:24;;;;;;;17.00;15.38;;;;;;;16.50;100.00;101825.47;4991910;28;20196;-41
2022/07/31 04:04:00;;;;;;;20.13;17.33;;;;;;;16.42;100.00;101813.19;4991593;28;20200;-49
2022/07/31 04:06:30;;;;;;;22.75;20.50;;;;;;;16.37;100.00;101863.91;4989315;28;20192;-45
2022/07/31 04:08:57;;;;;;;23.10;20.38;;;;;;;16.39;100.00;101845.78;4980095;28;20664;-48
2022/07/31 04:11:22;;;;;;;25.92;20.90;;;;;;;16.35;100.00;101824.34;4985494;28;20209;-47
2022/07/31 04:13:48;;;;;;;17.58;15.82;;;;;;;16.49;100.00;101808.38;4991268;28;20181;-48
2022/07/31 04:16:14;;;;;;;20.35;16.98;;;;;;;16.45;100.00;101837.38;4991384;28;20689;-46
2022/07/31 04:18:39;;;;;;;24.92;20.35;;;;;;;16.29;100.00;101841.75;4991873;28;20185;-48
2022/07/31 04:21:05;;;;;;;20.55;18.33;;;;;;;16.33;100.00;101839.78;4991851;28;20188;-46
2022/07/31 04:23:30;;;;;;;26.05;20.65;;;;;;;16.26;100.00;101837.34;4990924;28;20651;-46
2022/07/31 04:26:27;;;;;;;26.80;21.73;;;;;;;16.18;100.00;101847.66;4991729;28;20212;-47
2022/07/31 04:28:58;;;;;;;23.13;20.73;;;;;;;16.25;100.00;101851.84;4991267;28;20534;-46
2022/07/31 04:31:24;;;;;;;24.48;21.58;;;;;;;16.27;100.00;101862.59;4992486;28;20220;-48
2022/07/31 04:33:50;;;;;;;25.67;21.63;;;;;;;16.28;100.00;101867.03;4974735;28;20192;-46
2022/07/31 04:36:17;;;;;;;23.25;19.65;;;;;;;16.43;100.00;101863.63;4991456;28;20184;-46
2022/07/31 04:38:42;;;;;;;25.10;22.65;;;;;;;16.36;100.00;101850.47;4991339;28;20258;-46
2022/07/31 04:41:09;;;;;;;25.58;21.65;;;;;;;16.45;100.00;101877.09;4990006;28;20221;-47
2022/07/31 04:43:34;;;;;;;21.20;18.90;;;;;;;16.59;100.00;101862.91;4990637;28;20209;-47
2022/07/31 04:46:00;;;;;;;21.70;19.40;;;;;;;16.59;100.00;101758.25;4990925;28;20169;-47
2022/07/31 04:48:26;;;;;;;25.42;22.67;;;;;;;16.48;100.00;101949.97;4991158;28;20228;-46
2022/07/31 04:50:51;;;;;;;24.77;20.60;;;;;;;16.40;100.00;101880.00;4991684;28;20267;-45
2022/07/31 04:53:17;;;;;;;20.65;18.55;;;;;;;16.55;100.00;101834.25;4990640;28;20208;-47
2022/07/31 04:56:31;;;;;;;26.95;21.65;;;;;;;16.50;100.00;101847.97;4991136;28;20184;-45
2022/07/31 04:58:28;;;;;;;25.17;22.48;;;;;;;16.43;100.00;101841.13;4990601;28;20185;-48
2022/07/31 05:00:54;;;;;;;24.38;19.35;;;;;;;16.52;100.00;101854.19;4990645;28;20683;-46
2022/07/31 05:03:19;;;;;;;26.92;22.88;;;;;;;16.43;100.00;101847.41;4990374;28;20610;-48
2022/07/31 05:05:45;;;;;;;31.70;22.40;;;;;;;16.47;100.00;101870.66;4990591;28;20272;-48
2022/07/31 05:08:11;;;;;;;21.58;19.00;;;;;;;16.67;100.00;101880.53;4990810;28;20165;-49
2022/07/31 05:13:27;;;;;;;21.85;19.13;;;;;;;16.85;100.00;101924.81;4990859;28;20267;-48
2022/07/31 05:15:52;;;;;;;21.48;18.25;;;;;;;16.95;100.00;101884.69;4974527;28;20633;-45
2022/07/31 05:18:17;;;;;;;24.33;19.15;;;;;;;17.17;100.00;101887.22;4990794;28;20176;-46
2022/07/31 05:21:02;;;;;;;22.80;19.00;;;;;;;17.34;100.00;101885.50;4992424;28;20220;-46
2022/07/31 05:23:30;;;;;;;25.38;19.98;;;;;;;17.29;100.00;101878.50;4990432;28;20178;-48
2022/07/31 05:26:17;;;;;;;24.02;19.15;;;;;;;17.19;100.00;101860.06;4991908;28;20231;-47
2022/07/31 05:28:43;;;;;;;22.88;18.05;;;;;;;17.44;100.00;101776.59;4974527;28;20185;-45
2022/07/31 05:31:10;;;;;;;20.88;18.05;;;;;;;17.43;100.00;101773.97;4974224;28;20194;-48
2022/07/31 05:33:36;;;;;;;17.42;15.55;;;;;;;17.69;100.00;101753.66;4970581;28;20170;-48
2022/07/31 05:36:02;;;;;;;18.48;14.25;;;;;;;17.79;100.00;101703.38;4971505;28;20558;-47
2022/07/31 05:38:28;;;;;;;18.40;14.45;;;;;;;17.90;98.99;101947.72;4972748;28;20179;-49
2022/07/31 05:41:13;;;;;;;14.25;12.15;;;;;;;17.96;97.68;101773.00;4972462;28;20209;-48
2022/07/31 05:43:58;;;;;;;16.25;11.73;;;;;;;18.27;96.58;101844.56;4971555;28;20578;-48
2022/07/31 05:46:28;;;;;;;17.27;12.27;;;;;;;18.12;94.96;101852.53;4972709;28;20538;-47
2022/07/31 05:48:54;;;;;;;15.15;11.65;;;;;;;18.20;94.98;101844.00;4972505;28;20189;-48
2022/07/31 05:51:19;;;;;;;16.48;10.73;;;;;;;18.20;95.01;101844.00;4970923;28;20194;-47
2022/07/31 05:53:45;;;;;;;16.23;12.30;;;;;;;18.19;94.62;101839.56;4971434;28;20205;-48
2022/07/31 05:56:28;;;;;;;14.88;11.45;;;;;;;18.45;93.91;101848.97;4972430;28;20256;-49
2022/07/31 05:58:57;;;;;;;15.43;11.32;;;;;;;18.21;93.09;101842.16;4972333;28;20197;-49
2022/07/31 06:01:22;;;;;;;16.02;11.30;;;;;;;18.23;93.59;101848.38;4971001;28;20259;-49
2022/07/31 06:03:48;;;;;;;15.15;11.95;;;;;;;18.17;94.09;101835.16;4970502;28;20237;-50
2022/07/31 06:06:18;;;;;;;18.33;11.77;;;;;;;18.17;93.28;101833.34;4970863;28;20693;-50
2022/07/31 06:08:43;;;;;;;13.55;10.75;;;;;;;18.57;92.97;101833.84;4970914;28;20170;-48
2022/07/31 06:11:09;;;;;;;14.25;9.63;;;;;;;18.78;91.74;101830.91;4970320;28;20336;-49
2022/07/31 06:13:35;;;;;;;16.27;9.98;;;;;;;18.98;90.52;101837.91;4970715;28;20177;-48
2022/07/31 06:16:13;;;;;;;12.40;8.95;;;;;;;19.10;89.44;101832.66;4973189;28;20661;-48
2022/07/31 06:18:39;;;;;;;14.70;7.50;;;;;;;19.44;88.86;101832.50;4981690;28;20189;-48
2022/07/31 06:21:05;;;;;;;12.57;8.98;;;;;;;19.33;87.88;101846.75;4981668;28;20259;-47
2022/07/31 06:23:31;;;;;;;8.90;7.72;;;;;;;19.23;88.42;101842.81;4988704;28;20533;-48
2022/07/31 06:26:17;;;;;;;11.38;8.73;;;;;;;19.09;88.34;101841.78;4986451;28;20663;-48
2022/07/31 06:28:42;;;;;;;11.65;8.30;;;;;;;19.58;87.89;101848.88;4989613;28;20181;-49
2022/07/31 06:31:20;;;;;;;9.43;7.35;;;;;;;19.41;86.64;101843.56;4985016;28;20201;-48
2022/07/31 06:33:47;;;;;;;10.90;7.18;;;;;;;19.75;87.27;101847.91;4963701;28;20652;-47
2022/07/31 06:36:12;;;;;;;12.02;8.38;;;;;;;19.89;85.71;101814.41;4990180;28;20173;-47
2022/07/31 06:38:44;;;;;;;10.95;8.88;;;;;;;19.24;85.55;101725.91;4974715;28;20174;-47
2022/07/31 06:41:48;;;;;;;14.23;8.25;;;;;;;19.83;85.50;101719.59;4990970;28;20665;-48
2022/07/31 06:44:27;;;;;;;15.30;8.77;;;;;;;19.55;85.89;101746.63;4990813;28;20196;-49
2022/07/31 06:47:05;;;;;;;10.13;7.50;;;;;;;20.03;84.53;101748.25;4991567;28;20323;-49
2022/07/31 06:49:53;;;;;;;7.60;6.78;;;;;;;20.16;83.75;101741.94;4991344;28;20235;-47
2022/07/31 06:52:21;;;;;;;9.48;6.72;;;;;;;20.71;81.83;101693.94;4989600;28;20290;-47
2022/07/31 06:54:47;;;;;;;10.57;7.05;;;;;;;20.64;80.66;101817.88;4989419;28;20186;-48
2022/07/31 06:57:12;;;;;;;12.18;8.48;;;;;;;20.83;80.09;101862.94;4984422;28;20649;-48
2022/07/31 06:59:38;;;;;;;9.52;5.97;;;;;;;20.67;79.00;101806.75;4981154;28;20173;-47
2022/07/31 07:02:04;;;;;;;7.72;5.35;;;;;;;20.67;80.45;101792.28;4975039;28;20198;-49
2022/07/31 07:04:29;;;;;;;11.73;4.55;;;;;;;21.57;78.44;101749.88;4970923;28;20305;-49
2022/07/31 07:06:55;;;;;;;9.57;4.65;;;;;;;21.27;75.67;101630.16;4974552;28;20266;-49
2022/07/31 07:09:20;;;;;;;6.38;3.80;;;;;;;20.92;78.39;101788.78;4973678;28;20201;-48
2022/07/31 07:11:46;;;;;;;6.78;3.88;;;;;;;20.83;76.80;101714.00;4975513;28;20225;-49
2022/07/31 07:14:13;;;;;;;7.95;4.28;;;;;;;21.22;78.23;101692.31;4964121;28;20239;-49
2022/07/31 07:16:38;;;;;;;8.02;4.10;;;;;;;20.81;77.92;101887.56;4994642;28;20265;-47
2022/07/31 07:19:04;;;;;;;5.38;3.90;;;;;;;21.32;77.84;101844.22;4994683;28;20285;-49
2022/07/31 07:21:30;;;;;;;10.20;5.35;;;;;;;21.06;77.91;101856.88;4993336;28;20208;-48
2022/07/31 07:23:56;;;;;;;7.32;5.18;;;;;;;20.58;79.06;101780.13;4992278;28;20288;-48
2022/07/31 07:26:42;;;;;;;8.43;5.75;;;;;;;20.49;80.62;101769.81;4994335;28;20203;-47
2022/07/31 07:29:09;;;;;;;9.57;5.15;;;;;;;19.61;80.71;101929.38;4992914;28;20264;-48
2022/07/31 07:31:34;;;;;;;4.43;3.97;;;;;;;20.12;80.60;103152.75;4991107;28;20879;-47
2022/07/31 07:34:01;;;;;;;7.50;4.00;;;;;;;20.67;78.12;102331.50;4971609;28;20740;-47
2022/07/31 07:36:27;;;;;;;6.07;3.45;;;;;;;21.07;77.56;102092.09;4974425;28;20174;-48
2022/07/31 07:38:58;;;;;;;4.70;2.88;;;;;;;21.68;74.55;101976.38;4973349;28;20178;-48
2022/07/31 07:41:24;;;;;;;5.55;2.90;;;;;;;21.92;72.17;101990.22;4970265;28;20272;-49
2022/07/31 07:43:50;;;;;;;5.60;2.60;;;;;;;21.70;72.29;101911.69;4974374;28;20197;-49
2022/07/31 07:46:15;;;;;;;9.43;2.95;;;;;;;21.85;71.87;101855.19;4957301;28;20187;-49
2022/07/31 07:48:49;;;;;;;7.15;3.08;;;;;;;21.17;72.82;101832.50;4972812;28;20184;-48
2022/07/31 07:51:17;;;;;;;4.80;2.70;;;;;;;21.62;71.64;101807.69;4972886;28;20224;-50
2022/07/31 07:53:53;;;;;;;4.63;2.80;;;;;;;21.46;71.28;101813.31;4972246;28;20177;-48
2022/07/31 07:56:18;;;;;;;8.45;2.63;;;;;;;21.66;70.13;101790.13;4974198;28;20248;-48
2022/07/31 07:59:04;;;;;;;6.78;2.45;;;;;;;21.77;68.21;101798.41;4973545;28;20925;-47
2022/07/31 08:01:49;;;;;;;3.55;1.90;;;;;;;21.74;66.38;101785.00;4973739;28;20205;-49
2022/07/31 08:04:23;;;;;;;4.32;2.13;;;;;;;21.25;68.94;101785.63;4972086;28;20188;-49
2022/07/31 08:06:48;;;;;;;3.35;2.13;;;;;;;21.17;71.15;101774.41;4972515;28;20207;-48
2022/07/31 08:09:15;;;;;;;5.72;2.20;;;;;;;21.64;70.02;101775.72;4972285;28;20593;-48
2022/07/31 08:11:59;;;;;;;3.97;1.77;;;;;;;22.00;67.62;101780.44;4973565;28;20676;-48
2022/07/31 08:14:48;;;;;;;5.35;1.70;;;;;;;22.03;63.99;101765.69;4971882;28;20192;-50
2022/07/31 08:17:43;;;;;;;5.07;1.67;;;;;;;22.05;65.43;101766.47;4988331;28;20184;-47
2022/07/31 08:20:09;;;;;;;2.72;1.70;;;;;;;22.41;64.69;101775.72;4972144;28;20185;-49
2022/07/31 08:22:34;;;;;;;3.00;1.75;;;;;;;22.19;66.39;102366.94;4971857;28;20570;-48
2022/07/31 08:25:00;;;;;;;2.60;1.45;;;;;;;21.87;64.57;101898.75;4971557;28;20518;-50
2022/07/31 08:27:26;;;;;;;2.75;1.38;;;;;;;22.06;64.76;101822.78;4955972;28;20186;-48
2022/07/31 08:29:55;;;;;;;3.50;1.50;;;;;;;22.39;61.69;101778.56;4962449;28;20550;-49
2022/07/31 08:32:22;;;;;;;1.90;1.38;;;;;;;22.19;60.73;101771.81;4991486;28;20213;-49
2022/07/31 08:35:07;;;;;;;5.72;1.88;;;;;;;22.02;61.30;101742.13;4992199;28;20269;-47
2022/07/31 08:37:33;;;;;;;4.40;1.70;;;;;;;22.27;61.83;101743.97;4991550;28;20169;-48
2022/07/31 08:39:58;;;;;;;3.38;1.52;;;;;;;22.08;61.71;101752.56;4991172;28;20287;-47
2022/07/31 08:42:24;;;;;;;3.42;1.52;;;;;;;22.52;61.08;101743.06;4991121;28;20199;-48
2022/07/31 08:44:50;;;;;;;1.60;1.30;;;;;;;22.44;58.97;101741.88;4990930;28;20169;-48
2022/07/31 08:47:21;;;;;;;2.42;1.25;;;;;;;22.39;59.66;101747.66;4991296;28;20180;-48
2022/07/31 08:49:48;;;;;;;2.55;1.48;;;;;;;22.35;59.23;101743.44;4991346;28;20300;-49
2022/07/31 08:52:20;;;;;;;2.78;1.33;;;;;;;22.26;60.29;101736.78;4990951;28;20219;-47
2022/07/31 08:54:55;;;;;;;4.82;1.65;;;;;;;21.95;60.77;101727.16;4990691;28;20647;-50
2022/07/31 08:57:22;;;;;;;3.72;1.40;;;;;;;22.26;59.86;101733.16;4991184;28;20767;-43
2022/07/31 08:59:51;;;;;;;4.95;1.60;;;;;;;22.41;58.67;101730.19;4992151;28;20217;-44
2022/07/31 09:02:17;;;;;;;3.58;1.63;;;;;;;22.40;59.50;101739.34;4991190;28;20196;-43
2022/07/31 09:05:09;;;;;;;2.75;1.50;;;;;;;22.70;59.44;101723.53;4991452;28;20185;-43
2022/07/31 09:07:34;;;;;;;5.78;1.83;;;;;;;22.35;60.02;101713.38;4990863;28;20550;-44
2022/07/31 09:10:01;;;;;;;4.75;1.65;;;;;;;22.28;60.12;101725.72;4974340;28;20177;-42
2022/07/31 09:12:29;;;;;;;3.17;1.25;;;;;;;22.46;60.27;101724.38;4990598;28;20208;-44
2022/07/31 09:15:02;;;;;;;4.82;1.80;;;;;;;22.35;61.00;101714.25;4991514;28;20160;-44
2022/07/31 09:17:33;;;;;;;4.45;1.80;;;;;;;22.01;62.16;101726.72;4990397;28;20177;-43
2022/07/31 09:19:59;;;;;;;4.57;1.77;;;;;;;22.41;62.02;101726.56;4990831;28;20227;-43
2022/07/31 09:22:32;;;;;;;4.68;1.55;;;;;;;22.38;60.44;101715.88;4990193;28;20201;-45
2022/07/31 09:25:10;;;;;;;3.53;1.58;;;;;;;22.84;59.84;101720.63;4990160;28;20593;-44
2022/07/31 09:27:37;;;;;;;7.70;1.67;;;;;;;23.19;58.83;101717.94;4990841;28;20270;-42
2022/07/31 09:30:04;;;;;;;5.00;1.92;;;;;;;23.42;58.80;101715.28;4990879;28;20183;-43
2022/07/31 09:32:56;;;;;;;3.20;1.55;;;;;;;23.24;59.33;101714.84;4991000;28;20224;-41
2022/07/31 09:35:53;;;;;;;2.25;1.30;;;;;;;23.25;59.38;101716.59;4990470;28;20259;-43
2022/07/31 09:38:19;;;;;;;4.03;1.60;;;;;;;23.48;57.99;101708.44;4990630;28;20195;-44
2022/07/31 09:41:15;;;;;;;2.72;1.60;;;;;;;23.08;59.47;101695.16;4991586;28;20320;-46
2022/07/31 09:44:03;;;;;;;1.98;1.55;;;;;;;23.25;59.93;101861.53;4989923;28;20635;-45
2022/07/31 09:46:40;;;;;;;3.25;1.33;;;;;;;23.78;58.09;101749.81;4989897;28;20165;-43
2022/07/31 09:49:07;;;;;;;1.63;1.52;;;;;;;23.73;56.76;101732.88;4990453;28;20184;-47
2022/07/31 09:51:44;;;;;;;2.47;1.60;;;;;;;23.59;58.55;101921.84;4990228;28;20630;-50
2022/07/31 09:54:23;;;;;;;2.63;1.70;;;;;;;23.37;60.96;101644.53;4989819;28;20215;-46
2022/07/31 09:57:09;;;;;;;2.22;1.55;;;;;;;23.52;59.57;101597.81;4991597;28;20185;-48
2022/07/31 09:59:34;;;;;;;4.50;1.58;;;;;;;23.41;58.81;101640.53;4991645;28;20175;-47
2022/07/31 10:02:01;;;;;;;3.80;1.52;;;;;;;23.44;58.63;101574.69;4989917;28;20653;-45
2022/07/31 10:04:27;;;;;;;2.17;1.50;;;;;;;23.44;57.76;101580.16;4989588;28;20176;-45
2022/07/31 10:06:55;;;;;;;4.35;1.55;;;;;;;23.79;57.78;101575.53;4990244;28;20223;-47
2022/07/31 10:09:22;;;;;;;5.38;1.85;;;;;;;23.84;58.02;101573.31;4989587;28;20169;-48
2022/07/31 10:12:27;;;;;;;2.38;1.40;;;;;;;24.18;56.85;101573.22;4969319;28;20208;-53
2022/07/31 10:14:58;;;;;;;4.78;1.45;;;;;;;24.35;55.79;101569.94;4982160;28;20376;-51
2022/07/31 10:17:31;;;;;;;5.07;1.90;;;;;;;24.42;55.50;101696.28;4989905;28;20177;-47
2022/07/31 10:20:21;;;;;;;5.82;1.70;;;;;;;24.30;54.69;101653.50;4989541;28;20180;-49
2022/07/31 10:23:20;;;;;;;5.82;1.70;;;;;;;24.43;54.94;101659.69;4990788;28;20189;-47
2022/07/31 10:25:50;;;;;;;3.72;1.90;;;;;;;23.90;56.53;101656.78;4989503;28;20169;-46
2022/07/31 10:28:16;;;;;;;4.25;1.58;;;;;;;24.63;56.35;101650.69;4989078;28;20196;-45
2022/07/31 10:30:42;;;;;;;3.65;1.45;;;;;;;25.31;56.59;101653.13;4989643;28;20234;-47
2022/07/31 10:33:08;;;;;;;2.72;1.73;;;;;;;24.78;54.32;101639.44;4988999;28;20668;-49
2022/07/31 10:35:53;;;;;;;5.45;1.92;;;;;;;23.92;57.03;101628.31;4991102;28;20207;-46
2022/07/31 10:38:44;;;;;;;4.38;1.80;;;;;;;24.19;56.82;101625.13;4989245;28;20180;-49
2022/07/31 10:41:58;;;;;;;2.13;1.55;;;;;;;24.24;56.54;101611.06;4992364;28;20680;-48
2022/07/31 10:44:37;;;;;;;3.70;2.00;;;;;;;24.83;54.46;101610.59;4974035;28;20196;-53
2022/07/31 10:47:24;;;;;;;2.78;1.70;;;;;;;24.68;54.47;101593.59;4974433;28;20321;-48
2022/07/31 10:50:23;;;;;;;5.20;1.90;;;;;;;24.17;55.97;101599.75;4974567;28;20190;-46
2022/07/31 10:53:24;;;;;;;3.70;1.80;;;;;;;24.43;55.30;101585.72;4974215;28;20213;-47
2022/07/31 10:56:11;;;;;;;4.43;1.90;;;;;;;24.92;53.74;101573.31;4974443;28;20192;-48
2022/07/31 10:59:04;;;;;;;4.82;2.05;;;;;;;24.83;54.50;101538.47;4974051;28;20252;-47
2022/07/31 11:01:48;;;;;;;2.65;1.90;;;;;;;24.18;55.64;101533.03;4974299;28;20292;-45
2022/07/31 11:04:40;;;;;;;3.65;1.70;;;;;;;25.12;53.69;101546.84;4973919;28;20177;-49
2022/07/31 11:07:44;;;;;;;2.97;1.90;;;;;;;24.58;53.99;101537.88;4974412;28;20182;-48
2022/07/31 11:10:20;;;;;;;5.32;2.00;;;;;;;24.06;55.41;101529.47;4973926;28;20177;-48
2022/07/31 11:13:09;;;;;;;4.00;1.85;;;;;;;24.21;55.86;101524.56;4974868;28;20951;-48
2022/07/31 11:16:04;;;;;;;1.95;1.70;;;;;;;24.86;54.96;101516.25;4975694;28;20192;-47
2022/07/31 11:18:57;;;;;;;4.25;1.90;;;;;;;25.12;54.72;101529.56;4975367;28;20229;-48
2022/07/31 11:21:39;;;;;;;2.40;1.70;;;;;;;25.31;53.51;101515.97;4975366;28;20615;-49
2022/07/31 11:24:13;;;;;;;2.65;1.60;;;;;;;25.54;54.17;101515.75;4975110;28;20247;-49
2022/07/31 11:26:48;;;;;;;4.60;1.60;;;;;;;25.65;53.84;101504.69;4975053;28;20506;-48
2022/07/31 11:29:28;;;;;;;3.00;1.60;;;;;;;24.84;53.07;101502.72;4976249;28;20176;-48
2022/07/31 11:31:54;;;;;;;3.72;1.90;;;;;;;24.35;54.42;101497.88;4994487;28;20196;-48
2022/07/31 11:34:19;;;;;;;5.13;1.65;;;;;;;24.27;54.06;101515.84;4994053;28;20184;-51